createdAt,value
2019-05-13T00:02:21.116Z,69.87
2019-05-13T00:04:53.247Z,70.00
2019-05-13T00:07:23.945Z,70.16
2019-05-13T00:09:54.448Z,70.34
2019-05-13T00:12:24.459Z,70.45
2019-05-13T00:14:54.467Z,70.63
2019-05-13T00:17:24.456Z,70.41
2019-05-13T00:19:55.973Z,70.50
2019-05-13T00:22:25.975Z,70.71
2019-05-13T00:24:55.953Z,70.66
2019-05-13T00:27:26.054Z,70.96
2019-05-13T00:29:56.400Z,71.37
2019-05-13T00:32:26.388Z,71.50
2019-05-13T00:34:56.380Z,71.73
2019-05-13T00:37:26.546Z,71.83
2019-05-13T00:39:56.551Z,72.24
2019-05-13T00:42:29.788Z,72.59
2019-05-13T00:45:03.853Z,72.23
2019-05-13T00:47:34.209Z,72.00
2019-05-13T00:50:05.816Z,72.19
2019-05-13T00:52:36.372Z,72.48
2019-05-13T00:55:10.128Z,72.41
2019-05-13T00:57:43.674Z,72.44
2019-05-13T01:00:14.398Z,73.10
2019-05-13T01:02:46.111Z,73.45
2019-05-13T01:05:16.493Z,73.25
2019-05-13T01:07:46.471Z,73.24
2019-05-13T01:10:16.617Z,73.33
2019-05-13T01:12:46.617Z,73.73
2019-05-13T01:15:16.755Z,73.74
2019-05-13T01:17:46.739Z,73.67
2019-05-13T01:20:17.961Z,74.40
2019-05-13T01:22:49.020Z,74.62
2019-05-13T01:25:19.039Z,74.98
2019-05-13T01:27:53.604Z,74.73
2019-05-13T01:30:25.762Z,74.86
2019-05-13T01:32:56.065Z,75.31
2019-05-13T01:35:26.072Z,75.24
2019-05-13T01:37:58.815Z,75.49
2019-05-13T01:40:28.957Z,75.80
2019-05-13T01:42:59.203Z,76.17
2019-05-13T01:45:29.277Z,76.60
2019-05-13T01:47:59.327Z,76.34
2019-05-13T01:50:30.929Z,76.33
2019-05-13T01:53:01.006Z,76.16
2019-05-13T01:55:33.961Z,76.24
2019-05-13T01:58:04.310Z,76.46
2019-05-13T02:00:35.591Z,76.57
2019-05-13T02:03:05.853Z,76.80
2019-05-13T02:05:35.861Z,76.84
2019-05-13T02:08:06.087Z,76.87
2019-05-13T02:10:56.106Z,76.67
2019-05-13T02:13:26.333Z,76.62
2019-05-13T02:15:57.569Z,76.87
2019-05-13T02:18:28.901Z,77.04
2019-05-13T02:20:58.827Z,77.19
2019-05-13T02:23:28.814Z,76.74
2019-05-13T02:25:58.889Z,77.08
2019-05-13T02:28:28.886Z,76.65
2019-05-13T02:30:58.898Z,76.67
2019-05-13T02:33:29.541Z,77.02
2019-05-13T02:36:02.623Z,76.49
2019-05-13T02:38:35.505Z,76.64
2019-05-13T02:41:03.431Z,76.39
2019-05-13T02:43:33.746Z,76.79
2019-05-13T02:46:04.535Z,76.81
2019-05-13T02:48:34.721Z,77.34
2019-05-13T02:51:04.818Z,77.51
2019-05-13T02:53:35.881Z,77.66
2019-05-13T02:56:05.988Z,77.94
2019-05-13T02:58:36.615Z,78.21
2019-05-13T03:01:06.632Z,77.68
2019-05-13T03:03:36.628Z,77.69
2019-05-13T03:06:06.637Z,78.02
2019-05-13T03:08:46.368Z,77.81
2019-05-13T03:11:08.334Z,78.53
2019-05-13T03:13:38.408Z,78.00
2019-05-13T03:16:13.221Z,78.22
2019-05-13T03:18:43.616Z,78.29
2019-05-13T03:21:13.660Z,77.70
2019-05-13T03:23:44.462Z,77.87
2019-05-13T03:26:15.776Z,78.12
2019-05-13T03:28:45.849Z,78.26
2019-05-13T03:31:18.038Z,78.78
2019-05-13T03:33:55.985Z,78.37
2019-05-13T03:36:25.754Z,78.38
2019-05-13T03:39:05.264Z,78.16
2019-05-13T03:41:32.721Z,78.36
2019-05-13T03:44:03.312Z,78.52
2019-05-13T03:46:37.035Z,78.35
2019-05-13T03:49:13.915Z,78.25
2019-05-13T03:51:42.887Z,78.46
2019-05-13T03:54:18.234Z,78.95
2019-05-13T03:56:48.381Z,78.49
2019-05-13T03:59:18.523Z,78.70
2019-05-13T04:01:52.183Z,78.29
2019-05-13T04:04:23.286Z,78.35
2019-05-13T04:06:53.176Z,78.46
2019-05-13T04:09:31.135Z,78.40
2019-05-13T04:11:55.096Z,77.93
2019-05-13T04:14:25.348Z,78.21
2019-05-13T04:16:55.448Z,78.67
2019-05-13T04:19:25.521Z,78.36
2019-05-13T04:21:55.593Z,78.29
2019-05-13T04:24:25.650Z,78.45
2019-05-13T04:26:55.727Z,78.68
2019-05-13T04:29:25.888Z,78.35
2019-05-13T04:31:56.025Z,77.94
2019-05-13T04:34:26.164Z,78.56
2019-05-13T04:37:02.146Z,78.29
2019-05-13T04:39:44.617Z,78.37
2019-05-13T04:42:03.060Z,78.46
2019-05-13T04:44:33.302Z,78.14
2019-05-13T04:47:04.200Z,77.95
2019-05-13T04:49:34.393Z,77.97
2019-05-13T04:52:05.826Z,78.13
2019-05-13T04:54:36.923Z,77.89
2019-05-13T04:57:07.003Z,78.47
2019-05-13T04:59:40.350Z,78.53
2019-05-13T05:02:37.309Z,78.13
2019-05-13T05:05:17.830Z,77.98
2019-05-13T05:08:15.008Z,77.99
2019-05-13T05:10:57.126Z,77.83
2019-05-13T05:13:42.953Z,78.05
2019-05-13T05:16:41.076Z,77.94
2019-05-13T05:19:47.329Z,77.99
2019-05-13T05:22:22.167Z,78.24
2019-05-13T05:25:01.768Z,78.31
2019-05-13T05:27:43.410Z,78.12
2019-05-13T05:30:37.104Z,78.07
2019-05-13T05:33:43.498Z,77.74
2019-05-13T05:36:47.076Z,77.31
2019-05-13T05:39:27.731Z,76.68
2019-05-13T05:41:58.874Z,76.51
2019-05-13T05:44:32.458Z,76.54
2019-05-13T05:47:03.848Z,76.34
2019-05-13T05:49:33.996Z,76.11
2019-05-13T05:52:12.280Z,76.18
2019-05-13T05:54:42.350Z,75.66
2019-05-13T05:57:12.477Z,75.71
2019-05-13T05:59:42.969Z,75.65
2019-05-13T06:02:13.774Z,74.70
2019-05-13T06:04:46.870Z,74.17
2019-05-13T06:07:17.215Z,74.67
2019-05-13T06:09:47.355Z,74.74
2019-05-13T06:12:21.362Z,74.80
2019-05-13T06:14:52.468Z,75.38
2019-05-13T06:17:22.860Z,73.59
2019-05-13T06:19:52.935Z,73.35
2019-05-13T06:22:22.987Z,73.22
2019-05-13T06:24:53.147Z,73.45
2019-05-13T06:27:26.248Z,73.15
2019-05-13T06:29:56.855Z,72.04
2019-05-13T06:32:27.003Z,72.17
2019-05-13T06:34:57.365Z,72.84
2019-05-13T06:37:27.493Z,72.18
2019-05-13T06:39:57.567Z,70.86
2019-05-13T06:42:27.574Z,70.55
2019-05-13T06:44:57.635Z,70.34
2019-05-13T06:47:27.665Z,69.67
2019-05-13T06:49:57.749Z,68.84
2019-05-13T06:52:27.818Z,68.27
2019-05-13T06:54:57.865Z,69.29
2019-05-13T06:57:27.942Z,68.49
2019-05-13T06:59:57.946Z,67.67
2019-05-13T07:02:27.938Z,67.60
2019-05-13T07:05:02.076Z,67.01
2019-05-13T07:07:31.898Z,66.38
2019-05-13T07:10:02.766Z,65.94
2019-05-13T07:12:32.906Z,66.41
2019-05-13T07:15:03.514Z,65.45
2019-05-13T07:17:34.044Z,63.74
2019-05-13T07:20:11.358Z,64.15
2019-05-13T07:22:43.289Z,64.55
2019-05-13T07:25:13.538Z,64.67
2019-05-13T07:27:43.622Z,64.41
2019-05-13T07:30:16.370Z,62.73
2019-05-13T07:32:46.532Z,62.12
2019-05-13T07:35:16.976Z,62.19
2019-05-13T07:37:51.636Z,61.64
2019-05-13T07:40:22.211Z,61.74
2019-05-13T07:42:52.923Z,61.27
2019-05-13T07:45:22.921Z,63.25
2019-05-13T07:47:53.112Z,62.25
2019-05-13T07:50:25.562Z,61.05
2019-05-13T07:52:58.435Z,59.71
2019-05-13T07:55:31.614Z,58.48
2019-05-13T07:58:02.229Z,58.48
2019-05-13T08:00:32.714Z,58.29
2019-05-13T08:03:02.964Z,56.97
2019-05-13T08:05:33.093Z,57.08
2019-05-13T08:08:03.158Z,58.02
2019-05-13T08:10:33.255Z,58.42
2019-05-13T08:13:03.251Z,59.23
2019-05-13T08:15:33.272Z,56.93
2019-05-13T08:18:03.432Z,58.50
2019-05-13T08:20:36.272Z,56.55
2019-05-13T08:23:07.807Z,56.38
2019-05-13T08:25:38.002Z,55.73
2019-05-13T08:28:12.274Z,55.00
2019-05-13T08:30:43.088Z,53.46
2019-05-13T08:33:13.373Z,53.15
2019-05-13T08:35:52.230Z,53.35
2019-05-13T08:38:15.249Z,52.32
2019-05-13T08:40:45.380Z,54.40
2019-05-13T08:43:15.387Z,52.16
2019-05-13T08:45:45.554Z,52.69
2019-05-13T08:48:23.872Z,53.92
2019-05-13T08:50:55.272Z,51.81
2019-05-13T08:53:28.860Z,53.26
2019-05-13T08:55:58.880Z,53.20
2019-05-13T08:58:28.892Z,48.78
2019-05-13T09:01:01.868Z,48.96
2019-05-13T09:03:32.604Z,49.83
2019-05-13T09:06:03.066Z,49.50
2019-05-13T09:08:33.283Z,48.91
2019-05-13T09:11:03.380Z,49.00
2019-05-13T09:13:33.530Z,46.32
2019-05-13T09:16:03.929Z,46.74
2019-05-13T09:18:35.028Z,44.57
2019-05-13T09:21:06.844Z,42.98
2019-05-13T09:23:36.861Z,41.37
2019-05-13T09:26:06.930Z,43.08
2019-05-13T09:28:37.192Z,44.01
2019-05-13T09:31:07.270Z,42.96
2019-05-13T09:33:37.371Z,42.18
2019-05-13T09:36:08.448Z,45.25
2019-05-13T09:38:41.973Z,42.19
2019-05-13T09:41:12.496Z,42.51
2019-05-13T09:43:42.533Z,45.11
2019-05-13T09:46:12.926Z,39.76
2019-05-13T09:48:42.946Z,41.65
2019-05-13T09:51:12.964Z,40.29
2019-05-13T09:53:43.237Z,39.01
2019-05-13T09:56:14.412Z,44.29
2019-05-13T09:58:44.394Z,39.95
2019-05-13T10:01:14.478Z,40.51
2019-05-13T10:03:53.787Z,42.21
2019-05-13T10:06:16.198Z,40.25
2019-05-13T10:08:46.191Z,39.79
2019-05-13T10:11:16.299Z,41.25
2019-05-13T10:13:46.422Z,38.34
2019-05-13T10:16:16.507Z,38.13
2019-05-13T10:18:46.508Z,37.80
2019-05-13T10:21:16.775Z,36.56
2019-05-13T10:23:46.949Z,37.23
2019-05-13T10:26:17.393Z,35.91
2019-05-13T10:28:47.952Z,35.21
2019-05-13T10:31:18.099Z,35.60
2019-05-13T10:33:51.575Z,35.46
2019-05-13T10:36:22.579Z,36.01
2019-05-13T10:38:52.880Z,36.19
2019-05-13T10:41:23.218Z,37.69
2019-05-13T10:43:56.197Z,36.02
2019-05-13T10:46:26.283Z,35.51
2019-05-13T10:48:56.287Z,35.45
2019-05-13T10:51:26.629Z,34.89
2019-05-13T10:53:59.735Z,33.07
2019-05-13T10:56:32.915Z,32.94
2019-05-13T10:59:04.706Z,35.61
2019-05-13T11:01:34.801Z,37.35
2019-05-13T11:04:04.946Z,36.59
2019-05-13T11:06:35.127Z,33.36
2019-05-13T11:09:08.663Z,33.60
2019-05-13T11:11:41.420Z,32.22
2019-05-13T11:14:15.668Z,33.60
2019-05-13T11:16:47.555Z,33.37
2019-05-13T11:19:17.650Z,33.29
2019-05-13T11:21:50.833Z,31.42
2019-05-13T11:24:22.857Z,33.07
2019-05-13T11:26:53.372Z,33.36
2019-05-13T11:29:23.452Z,32.55
2019-05-13T11:31:53.602Z,28.88
2019-05-13T11:34:27.558Z,30.92
2019-05-13T11:36:59.103Z,30.81
2019-05-13T11:39:29.114Z,32.51
2019-05-13T11:42:02.050Z,30.60
2019-05-13T11:44:32.583Z,33.54
2019-05-13T11:47:03.100Z,30.93
2019-05-13T11:49:33.238Z,32.42
2019-05-13T11:52:03.326Z,30.62
2019-05-13T11:54:36.731Z,31.78
2019-05-13T11:57:08.376Z,30.07
2019-05-13T11:59:38.460Z,30.23
2019-05-13T12:02:13.251Z,26.53
2019-05-13T12:04:44.037Z,29.30
2019-05-13T12:07:13.673Z,30.65
2019-05-13T12:09:46.508Z,29.13
2019-05-13T12:12:16.531Z,32.32
2019-05-13T12:15:17.780Z,32.41
2019-05-13T12:17:18.790Z,31.11
2019-05-13T12:19:49.071Z,28.74
2019-05-13T12:22:22.724Z,27.34
2019-05-13T12:24:52.082Z,27.08
2019-05-13T12:27:22.370Z,28.53
2019-05-13T12:29:53.040Z,27.40
2019-05-13T12:32:23.214Z,26.74
2019-05-13T12:34:55.799Z,26.40
2019-05-13T12:37:25.907Z,27.61
2019-05-13T12:39:55.931Z,25.69
2019-05-13T12:42:25.955Z,25.85
2019-05-13T12:45:08.263Z,24.77
2019-05-13T12:47:27.815Z,25.93
2019-05-13T12:49:57.813Z,27.49
2019-05-13T12:52:27.835Z,28.92
2019-05-13T12:54:57.899Z,26.70
2019-05-13T12:57:28.080Z,31.54
2019-05-13T12:59:58.411Z,28.68
2019-05-13T13:02:28.468Z,27.79
2019-05-13T13:05:20.027Z,26.70
2019-05-13T13:07:34.926Z,27.46
2019-05-13T13:10:02.176Z,23.33
2019-05-13T13:12:36.118Z,23.30
2019-05-13T13:17:41.405Z,27.77
2019-05-13T13:20:14.914Z,24.77
2019-05-13T13:22:48.869Z,27.32
2019-05-13T13:25:23.549Z,25.10
2019-05-13T13:30:24.299Z,24.87
2019-05-13T13:32:55.045Z,24.69
2019-05-13T13:35:25.314Z,26.60
2019-05-13T13:37:55.334Z,24.37
2019-05-13T13:40:29.740Z,24.91
2019-05-13T13:42:58.652Z,25.20
2019-05-13T13:45:36.783Z,21.78
2019-05-13T13:48:04.385Z,26.93
2019-05-13T13:50:36.074Z,26.45
2019-05-13T13:53:06.134Z,25.72
2019-05-13T13:55:36.370Z,25.58
2019-05-13T13:58:09.181Z,23.37
2019-05-13T14:00:50.520Z,25.68
2019-05-13T14:03:12.343Z,23.93
2019-05-13T14:05:43.080Z,23.54
2019-05-13T14:07:13.040Z,23.09
2019-05-13T14:08:13.196Z,26.88
2019-05-13T14:10:43.506Z,23.93
2019-05-13T14:13:13.600Z,26.09
2019-05-13T14:15:43.601Z,25.65
2019-05-13T14:18:17.501Z,26.29
2019-05-13T14:20:47.668Z,26.15
2019-05-13T14:23:17.690Z,25.95
2019-05-13T14:25:48.027Z,26.62
2019-05-13T14:28:18.419Z,28.06
2019-05-13T14:30:51.410Z,27.07
2019-05-13T14:33:22.043Z,27.63
2019-05-13T14:35:53.193Z,27.62
2019-05-13T14:38:23.477Z,25.37
2019-05-13T14:40:53.910Z,25.05
2019-05-13T14:43:24.570Z,25.73
2019-05-13T14:45:57.762Z,28.11
2019-05-13T14:48:28.121Z,27.89
2019-05-13T14:50:59.045Z,30.75
2019-05-13T14:53:32.109Z,32.38
2019-05-13T14:56:03.334Z,32.44
2019-05-13T14:58:33.503Z,30.50
2019-05-13T15:01:15.900Z,33.34
2019-05-13T15:03:36.023Z,33.83
2019-05-13T15:06:06.320Z,31.51
2019-05-13T15:08:42.172Z,30.84
2019-05-13T15:11:12.689Z,31.04
2019-05-13T15:13:43.307Z,29.34
2019-05-13T15:16:13.586Z,30.38
2019-05-13T15:18:45.616Z,28.55
2019-05-13T15:21:15.811Z,28.82
2019-05-13T15:23:45.907Z,29.35
2019-05-13T15:26:17.791Z,28.65
2019-05-13T15:28:47.948Z,29.12
2019-05-13T15:31:18.124Z,32.29
2019-05-13T15:33:48.123Z,32.80
2019-05-13T15:36:22.384Z,32.77
2019-05-13T15:38:52.152Z,32.07
2019-05-13T15:41:22.751Z,32.41
2019-05-13T15:44:03.157Z,29.15
2019-05-13T15:46:32.423Z,30.59
2019-05-13T15:49:04.039Z,27.92
2019-05-13T15:51:34.258Z,29.40
2019-05-13T15:54:04.517Z,27.83
2019-05-13T15:56:34.716Z,27.51
2019-05-13T15:59:12.539Z,26.65
2019-05-13T16:01:43.939Z,27.18
2019-05-13T16:04:16.373Z,27.15
2019-05-13T16:06:46.447Z,24.88
2019-05-13T16:09:17.991Z,25.61
2019-05-13T16:11:48.665Z,25.26
2019-05-13T16:14:18.736Z,25.68
2019-05-13T16:16:49.983Z,24.91
2019-05-13T16:19:24.975Z,26.38
2019-05-13T16:21:55.126Z,27.45
2019-05-13T16:24:25.153Z,30.07
2019-05-13T16:26:55.743Z,28.34
2019-05-13T16:29:31.711Z,30.12
2019-05-13T16:32:05.420Z,30.46
2019-05-13T16:34:35.530Z,30.74
2019-05-13T16:37:05.618Z,29.57
2019-05-13T16:39:35.678Z,30.33
2019-05-13T16:42:05.835Z,29.64
2019-05-13T16:44:37.427Z,31.29
2019-05-13T16:47:08.068Z,30.65
2019-05-13T16:49:38.083Z,30.11
2019-05-13T16:52:08.731Z,31.17
2019-05-13T16:54:42.383Z,30.83
2019-05-13T16:57:16.769Z,31.10
2019-05-13T16:59:47.229Z,29.97
2019-05-13T17:02:17.237Z,31.01
2019-05-13T17:04:47.249Z,31.93
2019-05-13T17:07:27.435Z,33.31
2019-05-13T17:10:00.128Z,31.55
2019-05-13T17:12:31.615Z,31.57
2019-05-13T17:15:01.383Z,30.42
2019-05-13T17:17:32.315Z,30.79
2019-05-13T17:20:06.459Z,31.03
2019-05-13T17:22:47.123Z,31.81
2019-05-13T17:25:17.211Z,31.46
2019-05-13T17:27:54.422Z,33.87
2019-05-13T17:30:27.979Z,31.96
2019-05-13T17:33:05.647Z,33.37
2019-05-13T17:35:39.069Z,32.92
2019-05-13T17:38:11.415Z,34.14
2019-05-13T17:40:49.633Z,34.27
2019-05-13T17:43:16.040Z,34.21
2019-05-13T17:45:46.168Z,33.63
2019-05-13T17:48:26.797Z,35.53
2019-05-13T17:50:48.086Z,34.18
2019-05-13T17:53:21.676Z,35.50
2019-05-13T17:55:53.055Z,35.07
2019-05-13T17:58:23.454Z,36.18
2019-05-13T18:00:54.690Z,35.27
2019-05-13T18:03:27.935Z,35.87
2019-05-13T18:05:57.954Z,36.74
2019-05-13T18:08:27.958Z,37.15
2019-05-13T18:10:58.551Z,37.17
2019-05-13T18:13:28.643Z,38.56
2019-05-13T18:15:58.712Z,37.89
2019-05-13T18:18:42.634Z,38.11
2019-05-13T18:21:06.073Z,38.68
2019-05-13T18:23:36.078Z,39.17
2019-05-13T18:26:06.295Z,39.02
2019-05-13T18:28:37.378Z,39.20
2019-05-13T18:31:07.373Z,39.07
2019-05-13T18:33:37.398Z,39.31
2019-05-13T18:36:07.489Z,40.04
2019-05-13T18:38:37.512Z,40.48
2019-05-13T18:41:07.509Z,40.79
2019-05-13T18:43:41.162Z,41.54
2019-05-13T18:46:13.886Z,41.76
2019-05-13T18:48:58.079Z,42.18
2019-05-13T18:51:17.213Z,42.61
2019-05-13T18:53:47.233Z,43.17
2019-05-13T18:56:17.306Z,43.40
2019-05-13T18:58:47.330Z,43.72
2019-05-13T19:01:17.320Z,44.12
2019-05-13T19:03:47.341Z,45.14
2019-05-13T19:06:17.337Z,45.54
2019-05-13T19:08:47.435Z,45.75
2019-05-13T19:11:17.416Z,46.87
2019-05-13T19:13:47.637Z,47.69
2019-05-13T19:16:21.330Z,47.96
2019-05-13T19:18:51.063Z,48.25
2019-05-13T19:21:21.916Z,48.44
2019-05-13T19:23:52.019Z,48.44
2019-05-13T19:26:22.220Z,48.84
2019-05-13T19:28:53.783Z,49.64
2019-05-13T19:31:24.044Z,49.97
2019-05-13T19:33:54.077Z,50.51
2019-05-13T19:36:24.306Z,51.22
2019-05-13T19:38:56.590Z,51.22
2019-05-13T19:41:31.367Z,51.47
2019-05-13T19:44:01.614Z,51.66
2019-05-13T19:46:31.716Z,52.25
2019-05-13T19:49:01.821Z,52.22
2019-05-13T19:51:32.354Z,53.08
2019-05-13T19:54:04.068Z,53.46
2019-05-13T19:56:34.227Z,53.95
2019-05-13T19:59:04.298Z,54.34
2019-05-13T20:01:35.936Z,54.71
2019-05-13T20:04:05.966Z,55.29
2019-05-13T20:06:35.996Z,55.13
2019-05-13T20:09:07.426Z,55.70
2019-05-13T20:11:41.792Z,55.78
2019-05-13T20:14:12.202Z,56.14
2019-05-13T20:16:42.623Z,56.82
2019-05-13T20:19:12.785Z,57.30
2019-05-13T20:21:42.805Z,57.36
2019-05-13T20:24:12.832Z,57.41
2019-05-13T20:26:42.830Z,57.81
2019-05-13T20:29:14.292Z,58.28
2019-05-13T20:31:45.441Z,58.86
2019-05-13T20:34:16.966Z,59.08
2019-05-13T20:36:48.481Z,59.38
2019-05-13T20:39:24.053Z,59.42
2019-05-13T20:41:55.794Z,59.69
2019-05-13T20:44:25.994Z,59.63
2019-05-13T20:46:56.000Z,59.96
2019-05-13T20:49:25.987Z,60.07
2019-05-13T20:51:56.065Z,60.37
2019-05-13T20:54:27.308Z,60.33
2019-05-13T20:56:57.326Z,60.67
2019-05-13T20:59:27.896Z,61.07
2019-05-13T21:01:57.895Z,61.65
2019-05-13T21:04:27.896Z,62.00
2019-05-13T21:06:57.887Z,62.48
2019-05-13T21:09:31.686Z,62.87
2019-05-13T21:12:01.733Z,63.49
2019-05-13T21:14:32.027Z,63.60
2019-05-13T21:17:02.651Z,63.60
2019-05-13T21:19:39.387Z,63.47
2019-05-13T21:22:05.320Z,63.65
2019-05-13T21:24:38.371Z,63.93
2019-05-13T21:27:08.451Z,64.52
2019-05-13T21:29:38.494Z,64.26
2019-05-13T21:32:11.595Z,64.85
2019-05-13T21:34:41.209Z,65.03
2019-05-13T21:37:14.149Z,64.67
2019-05-13T21:39:44.163Z,64.79
2019-05-13T21:42:14.159Z,64.91
2019-05-13T21:44:44.166Z,65.72
2019-05-13T21:47:16.825Z,65.61
2019-05-13T21:49:47.008Z,65.79
2019-05-13T21:52:17.110Z,65.41
2019-05-13T21:54:47.185Z,65.66
2019-05-13T21:57:17.261Z,65.64
2019-05-13T21:59:47.401Z,66.14
2019-05-13T22:02:17.928Z,66.37
2019-05-13T22:04:51.714Z,66.42
2019-05-13T22:07:22.280Z,67.05
2019-05-13T22:09:52.433Z,67.20
2019-05-13T22:12:23.378Z,67.17
2019-05-13T22:14:53.359Z,67.60
2019-05-13T22:17:23.937Z,67.36
2019-05-13T22:19:53.949Z,67.53
2019-05-13T22:22:24.909Z,67.87
2019-05-13T22:24:54.905Z,68.04
2019-05-13T22:27:24.894Z,68.94
2019-05-13T22:29:54.899Z,69.26
2019-05-13T22:32:26.602Z,69.09
2019-05-13T22:34:57.171Z,69.45
2019-05-13T22:37:27.632Z,69.19
2019-05-13T22:39:57.640Z,70.09
2019-05-13T22:42:27.706Z,69.34
2019-05-13T22:44:57.725Z,69.91
2019-05-13T22:47:27.709Z,70.24
2019-05-13T22:49:58.160Z,69.81
2019-05-13T22:52:28.146Z,70.29
2019-05-13T22:54:58.149Z,70.03
2019-05-13T22:57:28.138Z,70.10
2019-05-13T22:59:58.218Z,69.87
2019-05-13T23:02:28.223Z,70.28
2019-05-13T23:04:58.221Z,70.32
2019-05-13T23:07:28.214Z,70.61
2019-05-13T23:09:58.230Z,70.49
2019-05-13T23:12:28.822Z,70.24
2019-05-13T23:15:01.171Z,70.34
2019-05-13T23:17:32.042Z,70.53
2019-05-13T23:20:02.246Z,70.62
2019-05-13T23:22:35.118Z,70.92
2019-05-13T23:25:08.900Z,70.66
2019-05-13T23:27:41.561Z,70.75
2019-05-13T23:30:11.861Z,70.79
2019-05-13T23:32:41.913Z,71.15
2019-05-13T23:35:12.162Z,71.01
2019-05-13T23:37:42.186Z,71.31
2019-05-13T23:40:12.361Z,71.65
2019-05-13T23:42:42.371Z,72.15
2019-05-13T23:45:15.369Z,71.96
2019-05-13T23:47:45.361Z,72.33
2019-05-13T23:50:15.506Z,71.84
2019-05-13T23:52:45.567Z,73.12
2019-05-13T23:55:15.817Z,73.26
2019-05-13T23:57:45.793Z,72.89
